Time;durP1;ratioP1;P1;durP2;ratioP2;P2;SDS_P1;SDS_P2;PMS_P1;PMS_P2;Temp;Humidity;BMP_temperature;BMP_pressure;BME280_temperature;BME280_humidity;BME280_pressure;Samples;Min_cycle;Max_cycle;Signal;HPM_P1;HPM_P2
2021/11/06 00:00:51;;;;;;;20.88;14.52;;;7.70;99.90;;;;;;5078026;28;20251;-80
2021/11/06 00:03:18;;;;;;;18.70;14.00;;;7.70;99.90;;;;;;5078618;28;20564;-80
2021/11/06 00:05:45;;;;;;;19.15;13.60;;;7.30;99.90;;;;;;5077558;28;20258;-80
2021/11/06 00:08:12;;;;;;;20.63;14.77;;;7.40;99.90;;;;;;5078833;28;20289;-79
2021/11/06 00:10:39;;;;;;;19.13;14.38;;;7.50;99.90;;;;;;5082347;28;20317;-80
2021/11/06 00:13:05;;;;;;;20.42;15.10;;;7.40;99.90;;;;;;5081047;28;20289;-80
2021/11/06 00:15:32;;;;;;;21.70;14.43;;;7.50;99.90;;;;;;5080035;28;20344;-80
2021/11/06 00:18:01;;;;;;;19.77;13.70;;;7.40;99.90;;;;;;5080082;28;20199;-80
2021/11/06 00:20:27;;;;;;;25.38;14.95;;;7.30;99.90;;;;;;5079733;28;20222;-80
2021/11/06 00:22:54;;;;;;;20.83;14.57;;;7.40;99.90;;;;;;5079306;28;20304;-80
2021/11/06 00:25:23;;;;;;;21.20;13.65;;;7.10;99.90;;;;;;5086071;28;20274;-79
2021/11/06 00:27:51;;;;;;;20.08;15.25;;;7.30;99.90;;;;;;5087040;28;20350;-79
2021/11/06 00:30:18;;;;;;;20.98;14.70;;;7.20;99.90;;;;;;5087852;28;20297;-79
2021/11/06 00:32:46;;;;;;;16.15;11.93;;;7.20;99.90;;;;;;5086926;28;20548;-80
2021/11/06 00:35:15;;;;;;;19.00;13.45;;;7.20;99.90;;;;;;5085024;28;20552;-79
2021/11/06 00:37:43;;;;;;;20.73;14.50;;;7.00;99.90;;;;;;5077777;28;20686;-80
2021/11/06 00:40:12;;;;;;;21.33;13.85;;;7.10;99.90;;;;;;5082163;28;20237;-79
2021/11/06 00:42:39;;;;;;;19.02;13.02;;;7.10;99.90;;;;;;5080462;28;20208;-80
2021/11/06 00:45:08;;;;;;;23.95;13.55;;;6.90;99.90;;;;;;5077094;28;20301;-80
2021/11/06 00:47:35;;;;;;;23.65;13.85;;;7.00;99.90;;;;;;5078400;28;20213;-80
2021/11/06 00:50:02;;;;;;;19.88;13.45;;;6.80;99.90;;;;;;5077422;28;20743;-80
2021/11/06 00:52:30;;;;;;;19.20;14.02;;;6.90;99.90;;;;;;5075575;28;20216;-80
2021/11/06 00:54:57;;;;;;;24.40;14.18;;;6.80;99.90;;;;;;5079455;28;20202;-80
2021/11/06 00:57:24;;;;;;;18.58;12.90;;;6.80;99.90;;;;;;5080672;28;20675;-79
2021/11/06 00:59:50;;;;;;;20.42;12.65;;;6.80;99.90;;;;;;5082233;28;20294;-79
2021/11/06 01:02:17;;;;;;;16.67;12.32;;;6.80;99.90;;;;;;5093070;28;20228;-79
2021/11/06 01:04:44;;;;;;;18.42;12.60;;;6.70;99.90;;;;;;5077851;28;20205;-80
2021/11/06 01:07:11;;;;;;;17.35;12.63;;;6.70;99.90;;;;;;5076570;28;20631;-79
2021/11/06 01:09:39;;;;;;;17.23;12.50;;;6.70;99.90;;;;;;5076895;28;20236;-79
2021/11/06 01:12:07;;;;;;;19.52;13.40;;;6.60;99.90;;;;;;5076482;28;20252;-79
2021/11/06 01:14:34;;;;;;;20.05;13.35;;;6.70;99.90;;;;;;5076719;28;20229;-79
2021/11/06 01:17:01;;;;;;;17.15;12.10;;;6.60;99.90;;;;;;5076258;28;20213;-80
2021/11/06 01:19:29;;;;;;;18.00;12.52;;;6.80;99.90;;;;;;5077208;28;20219;-79
2021/11/06 01:21:56;;;;;;;18.92;13.70;;;6.50;99.90;;;;;;5077795;28;20225;-79
2021/11/06 01:24:22;;;;;;;18.88;12.75;;;6.40;99.90;;;;;;5082856;28;20274;-79
2021/11/06 01:26:53;;;;;;;18.95;12.95;;;6.70;99.90;;;;;;5084618;28;20205;-79
2021/11/06 01:29:20;;;;;;;19.00;12.82;;;6.40;99.90;;;;;;5077305;28;20246;-80
2021/11/06 01:31:48;;;;;;;16.75;13.40;;;6.50;99.90;;;;;;5076864;28;20285;-80
2021/11/06 01:34:15;;;;;;;17.77;12.88;;;6.50;99.90;;;;;;5076482;28;20214;-80
2021/11/06 01:36:41;;;;;;;18.35;11.77;;;6.40;99.90;;;;;;5076430;28;20206;-80
2021/11/06 01:39:08;;;;;;;15.70;10.70;;;6.30;99.90;;;;;;5076201;28;20619;-79
2021/11/06 01:41:35;;;;;;;24.65;12.68;;;6.60;99.90;;;;;;5075590;28;20225;-80
2021/11/06 01:44:04;;;;;;;15.52;11.63;;;6.30;99.90;;;;;;5076398;28;20644;-79
2021/11/06 01:46:31;;;;;;;16.33;11.25;;;6.50;99.90;;;;;;5076230;28;20233;-80
2021/11/06 01:48:58;;;;;;;17.55;11.52;;;6.30;99.90;;;;;;5076021;28;20313;-79
2021/11/06 01:51:25;;;;;;;16.85;11.93;;;6.50;99.90;;;;;;5076054;28;20251;-80
2021/11/06 01:53:53;;;;;;;16.60;11.00;;;6.40;99.90;;;;;;5075891;28;20213;-80
2021/11/06 01:56:20;;;;;;;19.35;12.18;;;6.30;99.90;;;;;;5075990;28;20208;-79
2021/11/06 01:58:48;;;;;;;17.73;12.00;;;6.20;99.90;;;;;;5075779;28;20202;-79
2021/11/06 02:01:16;;;;;;;16.00;11.73;;;6.10;99.90;;;;;;5075915;28;20329;-80
2021/11/06 02:03:44;;;;;;;18.35;12.57;;;6.00;99.90;;;;;;5081558;22;20241;-80
2021/11/06 02:06:11;;;;;;;17.40;11.45;;;6.10;99.90;;;;;;5056896;28;20268;-78
2021/11/06 02:08:37;;;;;;;18.75;12.25;;;6.10;99.90;;;;;;5062539;28;20350;-80
2021/11/06 02:11:05;;;;;;;17.05;11.80;;;6.10;99.90;;;;;;5057705;28;20206;-80
2021/11/06 02:13:32;;;;;;;21.48;12.35;;;5.90;99.90;;;;;;5055020;28;20226;-81
2021/11/06 02:15:59;;;;;;;18.00;11.48;;;5.90;99.90;;;;;;5055225;28;20282;-80
2021/11/06 02:18:27;;;;;;;15.90;9.73;;;5.80;99.90;;;;;;5054716;28;20210;-79
2021/11/06 02:21:00;;;;;;;22.02;11.30;;;5.70;99.90;;;;;;5055385;28;20202;-80
2021/11/06 02:23:28;;;;;;;15.27;10.60;;;6.00;99.90;;;;;;5055171;28;20248;-80
2021/11/06 02:25:55;;;;;;;16.58;11.02;;;5.90;99.90;;;;;;5054608;28;20620;-80
2021/11/06 02:28:22;;;;;;;16.85;10.90;;;5.80;99.90;;;;;;5054557;28;20202;-80
2021/11/06 02:30:49;;;;;;;16.20;11.43;;;5.80;99.90;;;;;;5053918;28;20612;-79
2021/11/06 02:33:16;;;;;;;16.77;11.30;;;5.90;99.90;;;;;;5056928;28;20226;-82
2021/11/06 02:35:42;;;;;;;15.98;11.07;;;5.70;99.90;;;;;;5058226;28;20213;-79
2021/11/06 02:38:12;;;;;;;15.57;10.73;;;5.70;99.90;;;;;;5057979;28;20543;-79
2021/11/06 02:40:39;;;;;;;16.15;10.60;;;5.60;99.90;;;;;;5059650;28;20218;-79
2021/11/06 02:43:06;;;;;;;17.80;11.52;;;5.40;99.90;;;;;;5061312;28;20230;-81
2021/11/06 02:45:33;;;;;;;20.10;10.40;;;5.60;99.90;;;;;;5058044;28;20675;-81
2021/11/06 02:48:00;;;;;;;19.05;10.50;;;5.60;99.90;;;;;;5058174;28;20272;-81
2021/11/06 02:50:27;;;;;;;17.77;10.70;;;5.60;99.90;;;;;;5057553;28;20313;-81
2021/11/06 02:52:54;;;;;;;17.30;10.80;;;5.70;99.90;;;;;;5057497;28;20237;-81
2021/11/06 02:55:23;;;;;;;17.02;11.20;;;5.70;99.90;;;;;;5057939;28;20206;-81
2021/11/06 02:57:49;;;;;;;17.35;11.23;;;5.90;99.90;;;;;;5057344;28;20213;-80
2021/11/06 03:00:18;;;;;;;15.57;10.40;;;5.70;99.90;;;;;;5058246;28;20213;-81
2021/11/06 03:02:45;;;;;;;16.45;10.48;;;5.80;99.90;;;;;;5057346;28;20237;-81
2021/11/06 03:05:13;;;;;;;15.27;11.25;;;5.60;99.90;;;;;;5063411;28;20275;-79
2021/11/06 03:07:41;;;;;;;18.20;11.30;;;5.70;99.90;;;;;;5068222;28;20202;-79
2021/11/06 03:10:10;;;;;;;16.73;10.73;;;5.50;99.90;;;;;;5059432;28;20249;-81
2021/11/06 03:12:39;;;;;;;16.95;10.90;;;5.50;99.90;;;;;;5057882;28;20226;-81
2021/11/06 03:15:07;;;;;;;19.05;12.48;;;5.60;99.90;;;;;;5057422;28;20210;-80
2021/11/06 03:17:34;;;;;;;21.45;11.38;;;5.70;99.90;;;;;;5057971;28;20561;-80
2021/11/06 03:20:01;;;;;;;17.48;11.00;;;5.30;99.90;;;;;;5058047;28;20675;-80
2021/11/06 03:22:28;;;;;;;16.95;10.43;;;5.50;99.90;;;;;;5064474;28;20226;-78
2021/11/06 03:24:55;;;;;;;16.52;10.60;;;5.20;99.90;;;;;;5062905;28;20210;-81
2021/11/06 03:27:22;;;;;;;15.73;10.70;;;5.50;99.90;;;;;;5057311;28;20577;-81
2021/11/06 03:29:51;;;;;;;15.00;10.02;;;5.50;99.90;;;;;;5057508;28;20237;-81
2021/11/06 03:32:18;;;;;;;14.57;9.40;;;5.20;99.90;;;;;;5057788;28;20232;-81
2021/11/06 03:34:45;;;;;;;20.02;10.85;;;5.30;99.90;;;;;;5057456;28;20231;-81
2021/11/06 03:37:12;;;;;;;17.15;10.52;;;5.30;99.90;;;;;;5057024;28;20586;-81
2021/11/06 03:39:39;;;;;;;15.73;10.77;;;5.40;99.90;;;;;;5056796;28;20206;-80
2021/11/06 03:42:06;;;;;;;15.38;10.32;;;5.40;99.90;;;;;;5056608;28;20234;-79
2021/11/06 03:44:34;;;;;;;13.82;9.75;;;5.30;99.90;;;;;;5056620;28;20206;-82
2021/11/06 03:47:02;;;;;;;16.45;11.10;;;5.40;99.90;;;;;;5056851;28;20317;-80
2021/11/06 03:49:29;;;;;;;15.45;10.25;;;5.40;99.90;;;;;;5057034;28;20222;-79
2021/11/06 03:51:55;;;;;;;21.92;11.27;;;5.30;99.90;;;;;;5056622;28;20738;-80
2021/11/06 03:54:22;;;;;;;14.80;10.40;;;5.20;99.90;;;;;;5061751;28;20212;-78
2021/11/06 03:56:49;;;;;;;16.88;11.20;;;5.30;99.90;;;;;;5058533;28;20296;-81
2021/11/06 03:59:16;;;;;;;15.40;10.80;;;5.10;99.90;;;;;;5056737;28;20300;-80
2021/11/06 04:01:43;;;;;;;15.02;11.18;;;5.10;99.90;;;;;;5056583;28;20585;-80
2021/11/06 04:04:12;;;;;;;17.92;11.68;;;5.20;99.90;;;;;;5056843;28;20240;-81
2021/11/06 04:06:39;;;;;;;16.02;11.27;;;5.00;99.90;;;;;;5056494;28;20293;-80
2021/11/06 04:09:06;;;;;;;17.50;11.65;;;5.20;99.90;;;;;;5056955;28;20221;-80
2021/11/06 04:11:33;;;;;;;17.48;11.10;;;5.10;99.90;;;;;;5056146;28;20210;-81
2021/11/06 04:14:00;;;;;;;18.95;13.30;;;5.20;99.90;;;;;;5056244;28;20223;-80
2021/11/06 04:16:26;;;;;;;19.00;13.05;;;5.40;99.90;;;;;;5056441;28;20217;-80
2021/11/06 04:18:53;;;;;;;19.98;12.25;;;5.30;99.90;;;;;;5059972;28;20202;-78
2021/11/06 04:21:21;;;;;;;16.35;12.32;;;5.30;99.90;;;;;;5062226;28;20228;-80
2021/11/06 04:23:48;;;;;;;19.25;14.20;;;5.40;99.90;;;;;;5057925;28;20317;-81
2021/11/06 04:26:15;;;;;;;16.88;12.23;;;5.20;99.90;;;;;;5056217;28;20210;-81
2021/11/06 04:28:42;;;;;;;20.00;13.45;;;5.30;99.90;;;;;;5056315;28;20233;-81
2021/11/06 04:31:09;;;;;;;19.10;13.82;;;5.40;99.90;;;;;;5055953;28;20229;-81
2021/11/06 04:33:36;;;;;;;17.38;12.88;;;5.40;99.90;;;;;;5056430;28;20397;-80
2021/11/06 04:36:03;;;;;;;18.00;13.63;;;5.20;99.90;;;;;;5056996;28;20694;-81
2021/11/06 04:38:31;;;;;;;17.25;13.10;;;5.10;99.90;;;;;;5055354;28;20260;-81
2021/11/06 04:40:57;;;;;;;19.77;12.95;;;5.10;99.90;;;;;;5056171;28;20205;-80
2021/11/06 04:43:24;;;;;;;18.17;13.73;;;5.30;99.90;;;;;;5055769;28;20328;-79
2021/11/06 04:45:51;;;;;;;19.00;12.60;;;5.10;99.90;;;;;;5055784;28;20228;-79
2021/11/06 04:48:18;;;;;;;17.48;13.48;;;5.10;99.90;;;;;;5071585;28;20206;-79
2021/11/06 04:50:45;;;;;;;16.73;12.45;;;5.10;99.90;;;;;;5055358;28;20222;-79
2021/11/06 04:53:12;;;;;;;17.38;13.38;;;5.10;99.90;;;;;;5056408;28;20309;-78
2021/11/06 04:55:40;;;;;;;19.20;13.63;;;5.20;99.90;;;;;;5054396;28;20284;-78
2021/11/06 04:58:07;;;;;;;18.70;12.07;;;5.10;99.90;;;;;;5054874;28;20205;-80
2021/11/06 05:00:34;;;;;;;17.98;12.43;;;4.90;99.90;;;;;;5055303;28;20293;-80
2021/11/06 05:03:01;;;;;;;18.40;12.63;;;4.90;99.90;;;;;;5055264;28;20233;-79
2021/11/06 05:05:28;;;;;;;15.65;11.07;;;4.90;99.90;;;;;;5056253;28;20297;-78
2021/11/06 05:07:55;;;;;;;19.73;12.70;;;5.00;99.90;;;;;;5059750;28;20742;-80
2021/11/06 05:10:22;;;;;;;18.15;11.50;;;4.90;99.90;;;;;;5060604;28;20567;-78
2021/11/06 05:12:50;;;;;;;20.42;12.60;;;4.90;99.90;;;;;;5059396;28;20233;-79
2021/11/06 05:15:18;;;;;;;17.00;11.90;;;4.90;99.90;;;;;;5060809;28;20269;-79
2021/11/06 05:17:44;;;;;;;16.67;12.10;;;4.80;99.90;;;;;;5061501;28;20206;-79
2021/11/06 05:20:11;;;;;;;17.80;11.55;;;4.70;99.90;;;;;;5059813;28;20362;-79
2021/11/06 05:22:38;;;;;;;16.80;11.65;;;4.80;99.90;;;;;;5060954;28;20252;-80
2021/11/06 05:25:07;;;;;;;18.48;12.07;;;4.70;99.90;;;;;;5057192;28;20206;-79
2021/11/06 05:27:35;;;;;;;19.83;11.57;;;4.60;99.90;;;;;;5056231;28;20285;-79
2021/11/06 05:30:05;;;;;;;17.92;12.23;;;4.60;99.90;;;;;;5058958;28;20312;-79
2021/11/06 05:32:33;;;;;;;17.25;11.52;;;4.60;99.90;;;;;;5056737;28;20226;-80
2021/11/06 05:34:59;;;;;;;16.85;11.30;;;4.70;99.90;;;;;;5058700;28;20187;-81
2021/11/06 05:37:27;;;;;;;15.82;10.50;;;4.40;99.90;;;;;;5059464;28;20278;-79
2021/11/06 05:39:54;;;;;;;15.90;10.50;;;4.60;99.90;;;;;;5068268;28;20607;-80
2021/11/06 05:42:21;;;;;;;13.80;10.07;;;4.50;99.90;;;;;;5055672;28;20222;-80
2021/11/06 05:44:48;;;;;;;15.77;10.80;;;4.60;99.90;;;;;;5055399;28;20300;-80
2021/11/06 05:47:16;;;;;;;17.55;11.02;;;4.60;99.90;;;;;;5055305;28;20213;-80
2021/11/06 05:49:43;;;;;;;15.00;10.15;;;4.60;99.90;;;;;;5055238;28;20230;-80
2021/11/06 05:52:10;;;;;;;14.02;10.32;;;4.70;99.90;;;;;;5055037;28;20321;-80
2021/11/06 05:54:37;;;;;;;16.23;10.82;;;4.70;99.90;;;;;;5055540;28;20703;-80
2021/11/06 05:57:04;;;;;;;15.10;10.40;;;4.60;99.90;;;;;;5056748;28;20280;-80
2021/11/06 05:59:31;;;;;;;14.38;9.60;;;4.50;99.90;;;;;;5060181;28;20308;-80
2021/11/06 06:01:58;;;;;;;15.30;9.80;;;4.50;99.90;;;;;;5059768;28;20763;-79
2021/11/06 06:04:27;;;;;;;15.40;9.95;;;4.70;99.90;;;;;;5056580;28;20643;-79
2021/11/06 06:06:53;;;;;;;13.25;10.07;;;4.70;99.90;;;;;;5056167;28;20211;-78
2021/11/06 06:09:20;;;;;;;15.77;9.82;;;4.60;99.90;;;;;;5059303;28;20305;-80
2021/11/06 06:11:49;;;;;;;15.43;10.68;;;4.50;99.90;;;;;;5061510;28;20226;-80
2021/11/06 06:14:16;;;;;;;15.98;8.95;;;4.40;99.90;;;;;;5062734;28;20205;-80
2021/11/06 06:16:42;;;;;;;14.85;8.93;;;4.50;99.90;;;;;;5062828;28;20233;-80
2021/11/06 06:19:09;;;;;;;14.40;9.63;;;4.30;99.90;;;;;;5059068;28;20314;-80
2021/11/06 06:21:38;;;;;;;16.50;10.40;;;4.30;99.90;;;;;;5059444;28;20652;-80
2021/11/06 06:24:05;;;;;;;14.13;9.82;;;4.60;99.90;;;;;;5060679;28;20555;-81
2021/11/06 06:26:32;;;;;;;16.90;10.30;;;4.20;99.90;;;;;;5064834;28;20611;-80
2021/11/06 06:28:58;;;;;;;16.85;10.93;;;4.40;99.90;;;;;;5067791;28;20777;-80
2021/11/06 06:31:27;;;;;;;16.73;9.48;;;4.40;99.90;;;;;;5059315;28;20592;-79
2021/11/06 06:33:54;;;;;;;13.73;8.75;;;4.50;99.90;;;;;;5058736;28;20222;-79
2021/11/06 06:36:21;;;;;;;15.13;8.77;;;4.40;99.90;;;;;;5058593;28;20210;-79
2021/11/06 06:38:49;;;;;;;15.45;11.10;;;4.40;99.90;;;;;;5058528;28;20216;-78
2021/11/06 06:41:16;;;;;;;14.35;9.80;;;4.50;99.90;;;;;;5060131;28;20209;-78
2021/11/06 06:43:43;;;;;;;20.15;9.45;;;4.60;99.90;;;;;;5061863;28;20258;-79
2021/11/06 06:46:10;;;;;;;15.98;8.93;;;4.70;99.90;;;;;;5062197;28;20293;-78
2021/11/06 06:48:37;;;;;;;14.15;8.75;;;4.60;99.90;;;;;;5059822;28;20210;-78
2021/11/06 06:51:03;;;;;;;15.02;9.60;;;4.50;99.90;;;;;;5058319;28;20601;-78
2021/11/06 06:53:30;;;;;;;15.50;9.45;;;4.60;99.90;;;;;;5058131;28;20794;-79
2021/11/06 06:55:58;;;;;;;15.93;9.68;;;4.70;99.90;;;;;;5058753;28;20190;-78
2021/11/06 06:58:25;;;;;;;15.32;9.05;;;4.70;99.90;;;;;;5057256;28;20305;-78
2021/11/06 07:00:52;;;;;;;12.35;8.18;;;4.60;99.90;;;;;;5064216;28;20269;-78
2021/11/06 07:03:19;;;;;;;14.20;9.15;;;4.60;99.90;;;;;;5057226;28;20238;-80
2021/11/06 07:05:46;;;;;;;14.65;9.35;;;4.70;99.90;;;;;;5057894;28;20583;-79
2021/11/06 07:08:12;;;;;;;12.95;8.35;;;4.70;99.90;;;;;;5061131;28;20293;-79
2021/11/06 07:10:39;;;;;;;12.27;9.05;;;4.90;99.90;;;;;;5058609;28;20328;-79
2021/11/06 07:13:07;;;;;;;16.08;10.20;;;5.00;99.90;;;;;;5057978;28;20233;-79
2021/11/06 07:15:35;;;;;;;13.30;8.85;;;5.00;99.90;;;;;;5057834;28;20213;-79
2021/11/06 07:18:02;;;;;;;14.35;8.77;;;5.00;99.90;;;;;;5058043;28;20230;-78
2021/11/06 07:20:29;;;;;;;13.05;8.35;;;5.10;99.90;;;;;;5057271;28;20346;-80
2021/11/06 07:22:56;;;;;;;15.30;8.40;;;5.10;99.90;;;;;;5066444;28;20293;-78
2021/11/06 07:25:23;;;;;;;13.65;9.05;;;5.20;99.90;;;;;;5062073;28;20230;-78
2021/11/06 07:27:51;;;;;;;14.50;8.77;;;5.00;99.90;;;;;;5057484;28;20220;-79
2021/11/06 07:30:21;;;;;;;16.17;8.95;;;5.20;99.90;;;;;;5058069;28;20238;-79
2021/11/06 07:32:48;;;;;;;16.42;10.43;;;5.10;99.90;;;;;;5057900;28;20288;-79
2021/11/06 07:35:15;;;;;;;17.00;9.65;;;5.00;99.90;;;;;;5057875;28;20271;-79
2021/11/06 07:37:42;;;;;;;12.55;8.32;;;5.00;99.90;;;;;;5058157;28;20206;-80
2021/11/06 07:40:11;;;;;;;14.25;9.52;;;5.00;99.90;;;;;;5057916;28;20221;-79
2021/11/06 07:42:39;;;;;;;15.13;9.50;;;4.90;99.90;;;;;;5058023;28;20261;-79
2021/11/06 07:45:08;;;;;;;12.88;7.72;;;5.30;99.90;;;;;;5058998;28;20201;-79
2021/11/06 07:47:37;;;;;;;13.50;9.02;;;5.00;99.90;;;;;;5057952;28;20296;-80
2021/11/06 07:50:04;;;;;;;15.93;9.25;;;5.20;99.90;;;;;;5057248;28;20213;-79
2021/11/06 07:52:31;;;;;;;13.43;8.20;;;5.40;99.90;;;;;;5055980;28;20605;-78
2021/11/06 07:54:58;;;;;;;12.65;8.65;;;5.40;99.90;;;;;;5057184;28;20234;-78
2021/11/06 07:57:25;;;;;;;14.00;8.30;;;5.50;99.90;;;;;;5059511;28;20202;-78
2021/11/06 07:59:52;;;;;;;14.77;8.52;;;5.60;99.90;;;;;;5064012;28;20205;-79
2021/11/06 08:02:18;;;;;;;15.00;8.90;;;5.70;99.90;;;;;;5057736;28;20241;-78
2021/11/06 08:04:47;;;;;;;15.00;8.52;;;5.60;99.90;;;;;;5079734;22;20254;-78
2021/11/06 08:07:13;;;;;;;11.77;6.85;;;5.50;99.90;;;;;;5061044;28;20229;-80
2021/11/06 08:09:40;;;;;;;13.60;7.68;;;5.50;99.90;;;;;;5066662;28;20297;-81
2021/11/06 08:12:08;;;;;;;13.50;8.75;;;5.70;99.90;;;;;;5068668;28;20222;-82
2021/11/06 08:14:35;;;;;;;13.88;8.18;;;5.80;99.90;;;;;;5060938;28;20226;-83
2021/11/06 08:17:02;;;;;;;15.75;9.23;;;5.70;99.90;;;;;;5060845;28;20299;-83
2021/11/06 08:19:30;;;;;;;16.15;8.65;;;5.80;99.90;;;;;;5059220;28;20297;-83
2021/11/06 08:21:58;;;;;;;17.35;8.77;;;6.00;99.90;;;;;;5060124;28;20305;-83
2021/11/06 08:24:25;;;;;;;19.38;8.52;;;6.00;99.90;;;;;;5059120;28;20202;-82
2021/11/06 08:26:52;;;;;;;15.52;9.38;;;5.80;99.90;;;;;;5060876;28;20218;-81
2021/11/06 08:29:19;;;;;;;19.50;9.98;;;6.00;99.90;;;;;;5058288;28;20206;-80
2021/11/06 08:31:46;;;;;;;16.65;9.23;;;6.30;99.90;;;;;;5056772;28;20232;-80
2021/11/06 08:34:13;;;;;;;22.70;10.75;;;6.10;99.90;;;;;;5057960;28;20220;-81
2021/11/06 08:36:40;;;;;;;17.85;9.65;;;6.10;99.90;;;;;;5060569;28;20217;-81
2021/11/06 08:39:09;;;;;;;24.17;11.25;;;6.30;99.90;;;;;;5062319;28;20616;-81
2021/11/06 08:41:36;;;;;;;20.33;10.40;;;6.20;99.90;;;;;;5059695;28;20202;-82
2021/11/06 08:44:03;;;;;;;18.42;10.40;;;6.40;99.90;;;;;;5058389;28;20204;-81
2021/11/06 08:46:29;;;;;;;20.00;9.88;;;6.40;99.90;;;;;;5061966;28;20352;-81
2021/11/06 08:48:56;;;;;;;18.40;9.52;;;6.60;99.90;;;;;;5067490;28;20263;-81
2021/11/06 08:51:23;;;;;;;19.88;10.85;;;6.30;99.90;;;;;;5058734;28;20234;-81
2021/11/06 08:53:50;;;;;;;19.90;9.60;;;6.50;99.90;;;;;;5057624;28;20210;-81
2021/11/06 08:56:19;;;;;;;16.33;9.73;;;6.50;99.90;;;;;;5058992;28;20225;-81
2021/11/06 08:58:46;;;;;;;19.35;10.07;;;6.60;99.90;;;;;;5058952;28;20291;-81
2021/11/06 09:01:13;;;;;;;21.23;11.07;;;6.80;99.90;;;;;;5057923;28;20256;-84
2021/11/06 09:03:40;;;;;;;18.20;10.95;;;6.70;99.90;;;;;;5058068;28;20293;-84
2021/11/06 09:06:07;;;;;;;19.67;10.00;;;6.80;99.90;;;;;;5057267;28;20261;-84
2021/11/06 09:08:36;;;;;;;21.35;9.43;;;6.60;99.90;;;;;;5058846;28;20297;-85
2021/11/06 09:11:07;;;;;;;18.95;10.55;;;6.80;99.90;;;;;;5061754;28;20241;-84
2021/11/06 09:13:35;;;;;;;16.20;8.90;;;6.90;99.90;;;;;;5061763;28;20210;-84
2021/11/06 09:16:03;;;;;;;18.15;10.20;;;6.90;99.90;;;;;;5060934;28;20230;-84
2021/11/06 09:18:30;;;;;;;19.90;9.77;;;7.00;99.90;;;;;;5064167;28;20210;-83
2021/11/06 09:20:57;;;;;;;19.63;10.45;;;7.00;99.90;;;;;;5066021;28;20203;-84
2021/11/06 09:23:24;;;;;;;17.85;10.65;;;7.10;99.90;;;;;;5060521;28;20297;-81
2021/11/06 09:25:50;;;;;;;21.92;10.95;;;7.10;99.90;;;;;;5058475;28;20757;-81
2021/11/06 09:28:17;;;;;;;15.65;9.65;;;7.10;99.90;;;;;;5058718;28;20214;-81
2021/11/06 09:30:46;;;;;;;18.52;10.10;;;7.10;99.90;;;;;;5058472;28;20652;-81
2021/11/06 09:33:12;;;;;;;17.02;11.25;;;7.20;99.90;;;;;;5060026;28;20288;-81
2021/11/06 09:35:39;;;;;;;18.15;9.50;;;7.30;99.90;;;;;;5070230;28;20250;-81
2021/11/06 09:38:06;;;;;;;22.33;11.63;;;7.00;99.90;;;;;;5061128;28;20707;-81
2021/11/06 09:40:33;;;;;;;19.00;11.25;;;7.10;99.90;;;;;;5058732;28;20723;-81
2021/11/06 09:43:01;;;;;;;18.08;10.15;;;7.10;99.90;;;;;;5060752;28;20270;-81
2021/11/06 09:45:28;;;;;;;15.70;8.80;;;7.00;99.90;;;;;;5062390;28;20703;-81
2021/11/06 09:47:56;;;;;;;17.15;9.95;;;7.20;99.90;;;;;;5065115;28;20282;-81
2021/11/06 09:50:24;;;;;;;20.70;10.95;;;7.40;99.90;;;;;;5070136;28;20203;-81
2021/11/06 09:52:53;;;;;;;17.33;10.57;;;7.40;99.90;;;;;;5063083;28;20226;-82
2021/11/06 09:55:22;;;;;;;15.45;10.27;;;7.50;99.90;;;;;;5062772;28;20658;-81
2021/11/06 09:57:50;;;;;;;17.85;10.38;;;7.70;99.90;;;;;;5062860;28;20207;-81
2021/11/06 10:00:18;;;;;;;21.42;10.40;;;7.70;99.90;;;;;;5062700;28;20271;-82
2021/11/06 10:02:45;;;;;;;17.67;10.68;;;7.80;99.90;;;;;;5062051;28;20204;-81
2021/11/06 10:05:15;;;;;;;16.67;8.95;;;7.90;99.90;;;;;;5069817;28;20289;-81
2021/11/06 10:07:42;;;;;;;17.50;10.27;;;7.80;99.90;;;;;;5073967;28;20211;-81
2021/11/06 10:10:13;;;;;;;18.83;10.50;;;7.80;99.90;;;;;;5072513;28;20195;-80
2021/11/06 10:12:46;;;;;;;17.15;11.20;;;7.70;99.90;;;;;;5064013;28;20314;-81
2021/11/06 10:15:16;;;;;;;17.83;11.43;;;8.00;99.90;;;;;;5063043;28;20230;-81
2021/11/06 10:17:43;;;;;;;20.65;11.63;;;7.90;99.90;;;;;;5062401;28;20690;-81
2021/11/06 10:20:27;;;;;;;15.70;10.40;;;7.90;99.90;;;;;;5062864;28;20219;-81
2021/11/06 10:22:56;;;;;;;20.23;12.38;;;7.90;99.90;;;;;;5062598;28;20214;-81
2021/11/06 10:25:24;;;;;;;18.73;12.23;;;8.20;99.90;;;;;;5061894;28;20291;-81
2021/11/06 10:27:54;;;;;;;17.98;12.38;;;8.30;99.90;;;;;;5063358;28;20208;-81
2021/11/06 10:30:24;;;;;;;18.10;11.43;;;8.40;99.90;;;;;;5062502;28;20211;-81
2021/11/06 10:33:09;;;;;;;23.73;13.70;;;8.50;99.90;;;;;;5061849;28;20405;-81
2021/11/06 10:35:39;;;;;;;19.80;11.93;;;8.40;99.90;;;;;;5060727;28;20321;-81
2021/11/06 10:38:09;;;;;;;18.83;11.02;;;8.30;99.90;;;;;;5061461;28;20310;-80
2021/11/06 10:40:40;;;;;;;17.48;11.35;;;8.30;99.90;;;;;;5062245;28;20291;-81
2021/11/06 10:43:08;;;;;;;21.10;13.80;;;8.40;99.90;;;;;;5069979;28;20204;-81
2021/11/06 10:45:37;;;;;;;23.55;14.88;;;8.50;99.90;;;;;;5061586;28;20247;-81
2021/11/06 10:48:06;;;;;;;22.83;14.15;;;8.60;99.90;;;;;;5063068;28;20298;-80
2021/11/06 10:50:59;;;;;;;21.35;13.90;;;8.60;99.90;;;;;;5063170;28;20208;-80
2021/11/06 10:53:41;;;;;;;23.60;15.45;;;8.60;99.90;;;;;;5070111;28;20223;-81
2021/11/06 10:56:42;;;;;;;21.67;14.00;;;8.60;99.90;;;;;;5062390;28;20299;-80
2021/11/06 10:59:11;;;;;;;22.70;15.70;;;8.40;99.90;;;;;;5060816;28;20211;-81
2021/11/06 11:01:39;;;;;;;22.75;14.23;;;8.60;99.90;;;;;;5064107;28;20311;-80
2021/11/06 11:04:08;;;;;;;24.33;15.05;;;8.90;99.90;;;;;;5061964;28;20208;-80
2021/11/06 11:06:45;;;;;;;23.08;15.00;;;9.00;99.90;;;;;;5061666;28;20269;-80
2021/11/06 11:09:14;;;;;;;25.42;14.90;;;8.90;99.90;;;;;;5062107;28;20187;-80
2021/11/06 11:11:42;;;;;;;23.23;14.73;;;8.80;99.90;;;;;;5061431;28;20235;-80
2021/11/06 11:14:10;;;;;;;24.05;14.57;;;8.80;99.90;;;;;;5061976;28;20298;-81
2021/11/06 11:16:40;;;;;;;23.38;15.25;;;8.80;99.90;;;;;;5064355;28;20429;-80
2021/11/06 11:19:10;;;;;;;25.10;15.85;;;8.90;99.90;;;;;;5066392;28;20219;-80
2021/11/06 11:21:43;;;;;;;24.92;15.23;;;8.80;99.90;;;;;;5067466;28;20232;-81
2021/11/06 11:24:12;;;;;;;24.85;16.17;;;8.60;99.90;;;;;;5063785;28;20204;-81
2021/11/06 11:26:41;;;;;;;23.00;15.18;;;8.60;99.90;;;;;;5061768;28;20649;-81
2021/11/06 11:29:10;;;;;;;22.35;14.20;;;8.80;99.90;;;;;;5061753;28;20237;-81
2021/11/06 11:31:37;;;;;;;23.95;15.50;;;8.80;99.90;;;;;;5061732;28;20227;-81
2021/11/06 11:34:08;;;;;;;23.10;15.02;;;8.80;99.90;;;;;;5062188;28;20208;-81
2021/11/06 11:36:35;;;;;;;26.67;15.97;;;8.70;99.90;;;;;;5073513;28;20287;-81
2021/11/06 11:39:05;;;;;;;26.52;16.00;;;8.80;99.90;;;;;;5073731;28;20486;-81
2021/11/06 11:42:07;;;;;;;26.15;16.48;;;8.80;99.90;;;;;;5069732;28;20223;-81
2021/11/06 11:45:16;;;;;;;22.88;15.07;;;9.00;99.90;;;;;;5065640;28;20309;-81
2021/11/06 11:47:49;;;;;;;25.67;17.13;;;9.10;99.90;;;;;;5058539;28;20636;-81
2021/11/06 11:50:17;;;;;;;22.55;14.55;;;9.20;99.90;;;;;;5060710;28;20409;-81
2021/11/06 11:52:50;;;;;;;25.67;15.02;;;9.10;99.90;;;;;;5059767;28;20227;-81
2021/11/06 11:55:20;;;;;;;22.58;16.38;;;9.30;99.90;;;;;;5059990;28;20235;-81
2021/11/06 11:57:52;;;;;;;26.67;17.67;;;9.20;99.90;;;;;;5061357;28;20191;-81
2021/11/06 12:00:36;;;;;;;27.42;18.35;;;9.10;99.90;;;;;;5068932;28;20216;-81
2021/11/06 12:03:04;;;;;;;21.70;15.55;;;9.20;99.90;;;;;;5060729;28;20291;-81
2021/11/06 12:05:36;;;;;;;24.30;17.40;;;9.30;99.90;;;;;;5060040;28;20235;-81
2021/11/06 12:08:35;;;;;;;23.08;15.27;;;9.30;99.90;;;;;;5060047;28;20456;-81
2021/11/06 12:11:24;;;;;;;24.77;17.00;;;9.40;99.90;;;;;;5060307;28;20218;-81
2021/11/06 12:13:54;;;;;;;26.42;17.50;;;9.50;99.90;;;;;;5059410;28;20461;-81
2021/11/06 12:16:24;;;;;;;24.20;14.15;;;9.50;99.90;;;;;;5059926;28;20228;-81
2021/11/06 12:18:56;;;;;;;25.83;15.90;;;9.30;99.90;;;;;;5060772;28;20207;-81
2021/11/06 12:21:30;;;;;;;25.40;15.48;;;9.10;99.90;;;;;;5061338;28;20255;-81
2021/11/06 12:23:59;;;;;;;31.35;19.13;;;9.00;99.90;;;;;;5059570;28;20206;-82
2021/11/06 12:26:29;;;;;;;27.35;19.35;;;9.00;99.90;;;;;;5066549;28;20243;-81
2021/11/06 12:29:31;;;;;;;28.42;16.85;;;9.00;99.90;;;;;;5059774;28;20657;-81
2021/11/06 12:32:11;;;;;;;30.77;17.52;;;9.00;99.90;;;;;;5029717;28;20237;-81
2021/11/06 12:34:43;;;;;;;25.98;17.13;;;9.20;99.90;;;;;;5062703;28;20233;-83
2021/11/06 12:37:13;;;;;;;32.70;19.67;;;9.30;99.90;;;;;;5063430;28;20222;-81
2021/11/06 12:39:46;;;;;;;32.00;19.00;;;9.10;99.90;;;;;;5067581;28;20219;-81
2021/11/06 12:42:16;;;;;;;24.07;17.27;;;9.10;99.90;;;;;;5068071;28;20233;-81
2021/11/06 12:44:51;;;;;;;30.77;19.17;;;9.20;99.90;;;;;;5065288;28;20477;-81